.
WxDataArchive / Data Records for 2009-12-10
2009-12-09 December 2009 2009-12-11

Data Records for Thursday, 10 December 2009

Time	Temp	Chill	HIndex	Humid	Dewpt	 Wind 	HiWind	WindDir	Rain 	Barom 
-----	----	-----	------	-----	-----	------	------	-------	-----	----- 
00:00	15.9	9.5	15.9	83	11.7	4	10	270	0.00	29.671 
00:05	15.7	7.9	15.7	83	11.5	5	11	248	0.00	29.671 
00:10	15.7	7.9	15.7	83	11.5	5	12	270	0.00	29.671 
00:15	15.6	7.8	15.6	83	11.4	5	13	248	0.00	29.676 
00:20	15.4	7.6	15.4	82	10.9	5	14	248	0.00	29.676 
00:25	15.4	5.5	15.4	82	10.9	7	18	248	0.00	29.676 
00:30	15.1	6.1	15.1	81	10.3	6	18	270	0.00	29.693 
00:35	15.1	8.6	15.1	81	10.3	4	9	248	0.00	29.693 
00:40	14.9	7.0	14.9	81	10.1	5	13	270	0.00	29.693 
00:45	14.8	6.9	14.8	80	9.8	5	13	270	0.00	29.696 
00:50	14.8	6.9	14.8	80	9.8	5	12	248	0.00	29.696 
00:55	14.8	8.2	14.8	80	9.8	4	13	270	0.00	29.696 
01:00	14.8	8.2	14.8	80	9.8	4	12	270	0.00	29.706 
01:05	14.8	6.9	14.8	80	9.8	5	11	248	0.00	29.706 
01:10	14.8	14.8	14.8	80	9.8	3	6	270	0.00	29.706 
01:15	14.8	5.7	14.8	79	9.5	6	15	270	0.00	29.716 
01:20	14.6	6.6	14.6	78	9.0	5	13	248	0.00	29.716 
01:25	14.6	6.6	14.6	78	9.0	5	14	248	0.00	29.716 
01:30	14.4	6.4	14.4	77	8.5	5	16	248	0.00	29.727 
01:35	14.3	7.6	14.3	77	8.4	4	8	248	0.00	29.727 
01:40	14.1	6.1	14.1	77	8.2	5	14	248	0.00	29.727 
01:45	14.0	4.8	14.0	77	8.1	6	13	270	0.00	29.727 
01:50	14.0	5.9	14.0	77	8.1	5	12	248	0.00	29.727 
01:55	14.0	7.3	14.0	77	8.1	4	12	270	0.00	29.727 
02:00	14.0	5.9	14.0	77	8.1	5	14	270	0.00	29.739 
02:05	13.8	5.7	13.8	77	7.9	5	14	248	0.00	29.739 
02:10	13.8	4.6	13.8	77	7.9	6	16	248	0.00	29.739 
02:15	13.8	4.6	13.8	78	8.2	6	14	248	0.00	29.748 
02:20	13.8	5.7	13.8	78	8.2	5	14	248	0.00	29.748 
02:25	13.6	13.6	13.6	77	7.8	3	9	248	0.00	29.748 
02:30	13.5	5.3	13.5	77	7.7	5	12	248	0.00	29.762 
02:35	13.5	6.7	13.5	76	7.4	4	10	248	0.00	29.762 
02:40	13.5	5.3	13.5	76	7.4	5	14	270	0.00	29.762 
02:45	13.5	13.5	13.5	76	7.4	3	12	270	0.00	29.773 
02:50	13.5	6.7	13.5	77	7.7	4	11	248	0.00	29.773 
02:55	13.5	5.3	13.5	76	7.4	5	17	248	0.00	29.773 
03:00	13.3	4.0	13.3	75	6.9	6	17	248	0.00	29.782 
03:05	13.1	4.9	13.1	74	6.4	5	11	270	0.00	29.782 
03:10	12.9	4.6	12.9	75	6.5	5	12	270	0.00	29.782 
03:15	12.9	6.0	12.9	75	6.5	4	13	270	0.00	29.802 
03:20	12.9	6.0	12.9	75	6.5	4	9	248	0.00	29.802 
03:25	12.8	4.5	12.8	75	6.4	5	11	248	0.00	29.802 
03:30	12.8	3.4	12.8	76	6.7	6	15	248	0.00	29.806 
03:35	12.6	4.3	12.6	75	6.2	5	14	270	0.00	29.806 
03:40	12.4	4.1	12.4	74	5.7	5	13	270	0.00	29.806 
03:45	12.3	1.8	12.3	73	5.3	7	17	270	0.00	29.810 
03:50	12.1	2.5	12.1	73	5.1	6	11	270	0.00	29.810 
03:55	12.1	3.7	12.1	73	5.1	5	14	270	0.00	29.810 
04:00	12.1	5.1	12.1	73	5.1	4	7	270	0.00	29.814 
04:05	12.1	5.1	12.1	73	5.1	4	11	248	0.00	29.814 
04:10	12.1	5.1	12.1	75	5.7	4	12	248	0.00	29.814 
04:15	12.1	5.1	12.1	75	5.7	4	11	248	0.00	29.814 
04:20	12.1	3.7	12.1	74	5.4	5	15	270	0.00	29.814 
04:25	12.1	5.1	12.1	74	5.4	4	11	270	0.00	29.814 
04:30	11.9	4.9	11.9	73	4.9	4	12	270	0.00	29.825 
04:35	11.7	3.2	11.7	73	4.7	5	11	270	0.00	29.825 
04:40	11.6	3.1	11.6	73	4.7	5	11	270	0.00	29.825 
04:45	11.4	4.3	11.4	74	4.8	4	10	270	0.00	29.823 
04:50	11.4	4.3	11.4	75	5.0	4	10	248	0.00	29.823 
04:55	11.2	4.0	11.2	74	4.6	4	10	270	0.00	29.823 
05:00	11.2	4.0	11.2	73	4.3	4	10	270	0.00	29.824 
05:05	11.2	2.6	11.2	73	4.3	5	15	270	0.00	29.824 
05:10	11.4	2.9	11.4	73	4.5	5	13	270	0.00	29.824 
05:15	11.4	4.3	11.4	74	4.8	4	7	270	0.00	29.838 
05:20	11.2	1.5	11.2	74	4.6	6	17	270	0.00	29.838 
05:25	11.1	2.5	11.1	75	4.8	5	12	270	0.00	29.838 
05:30	11.1	1.3	11.1	75	4.8	6	12	270	0.00	29.845 
05:35	11.1	2.5	11.1	75	4.8	5	13	270	0.00	29.845 
05:40	11.1	2.5	11.1	75	4.8	5	13	248	0.00	29.845 
05:45	11.1	2.5	11.1	75	4.8	5	12	270	0.00	29.848 
05:50	11.1	3.9	11.1	75	4.8	4	13	270	0.00	29.848 
05:55	11.2	4.0	11.2	75	4.9	4	11	270	0.00	29.848 
06:00	11.2	11.2	11.2	76	5.1	3	9	248	0.00	29.858 
06:05	11.2	11.2	11.2	76	5.1	3	7	248	0.00	29.858 
06:10	11.2	11.2	11.2	76	5.1	3	7	248	0.00	29.858 
06:15	11.4	4.3	11.4	77	5.6	4	12	248	0.00	29.864 
06:20	11.4	2.9	11.4	77	5.6	5	16	248	0.00	29.864 
06:25	11.1	0.3	11.1	74	4.5	7	15	270	0.00	29.864 
06:30	10.9	3.7	10.9	73	4.0	4	9	270	0.00	29.866 
06:35	10.7	3.5	10.7	73	3.8	4	9	248	0.00	29.866 
06:40	10.5	3.2	10.5	73	3.6	4	13	248	0.00	29.866 
06:45	10.5	3.2	10.5	73	3.6	4	11	270	0.00	29.868 
06:50	10.5	3.2	10.5	73	3.6	4	10	248	0.00	29.868 
06:55	10.4	3.1	10.4	74	3.8	4	16	248	0.00	29.868 
07:00	10.4	10.4	10.4	75	4.1	3	10	248	0.00	29.884 
07:05	10.4	3.1	10.4	75	4.1	4	11	248	0.00	29.884 
07:10	9.7	-0.3	9.7	72	2.5	6	15	270	0.00	29.884 
07:15	9.3	1.9	9.3	71	1.8	4	12	270	0.00	29.898 
07:20	9.2	-0.9	9.2	70	1.4	6	13	270	0.00	29.898 
07:25	9.0	0.1	9.0	71	1.5	5	12	270	0.00	29.898 
07:30	9.0	1.5	9.0	73	2.1	4	12	248	0.00	29.912 
07:35	9.0	9.0	9.0	73	2.1	3	6	248	0.00	29.912 
07:40	8.8	-1.4	8.8	72	1.6	6	16	248	0.00	29.912 
07:45	8.6	-0.4	8.6	71	1.2	5	11	248	0.00	29.916 
07:50	8.4	-0.6	8.4	70	0.7	5	14	270	0.00	29.916 
07:55	8.4	-2.9	8.4	70	0.7	7	17	270	0.00	29.916 
08:00	8.3	0.7	8.3	71	0.9	4	12	270	0.00	29.923 
08:05	8.1	-1.0	8.1	71	0.7	5	19	270	0.00	29.923 
08:10	7.9	-3.5	7.9	70	0.2	7	15	270	0.00	29.923 
08:15	7.9	-2.5	7.9	69	-0.1	6	16	270	0.00	29.932 
08:20	7.9	0.2	7.9	69	-0.1	4	12	270	0.00	29.932 
08:25	7.9	-2.5	7.9	70	0.2	6	16	248	0.00	29.932 
08:30	7.9	0.2	7.9	71	0.5	4	13	248	0.00	29.937 
08:35	7.9	0.2	7.9	71	0.5	4	12	248	0.00	29.937 
08:40	7.9	-1.2	7.9	69	-0.1	5	19	270	0.00	29.937 
08:45	7.9	-2.5	7.9	70	0.2	6	14	270	0.00	29.946 
08:50	7.9	-1.2	7.9	69	-0.1	5	11	270	0.00	29.946 
08:55	8.1	8.1	8.1	70	0.4	3	10	248	0.00	29.946 
09:00	8.1	8.1	8.1	69	0.1	3	9	270	0.00	29.954 
09:05	8.1	8.1	8.1	70	0.4	3	10	270	0.00	29.954 
09:10	8.3	-2.0	8.3	70	0.6	6	15	248	0.00	29.954 
09:15	8.3	-0.8	8.3	70	0.6	5	15	248	0.00	29.963 
09:20	8.3	0.7	8.3	70	0.6	4	10	248	0.00	29.963 
09:25	8.3	-0.8	8.3	69	0.3	5	10	270	0.00	29.963 
09:30	8.3	0.7	8.3	69	0.3	4	13	270	0.00	29.964 
09:35	8.3	-0.8	8.3	68	-0.0	5	13	248	0.00	29.964 
09:40	8.3	-2.0	8.3	67	-0.4	6	16	270	0.00	29.964 
09:45	8.4	-1.9	8.4	67	-0.3	6	15	270	0.00	29.967 
09:50	8.4	-0.6	8.4	66	-0.6	5	11	270	0.00	29.967 
09:55	8.6	1.0	8.6	67	-0.1	4	11	270	0.00	29.967 
10:00	8.8	-0.2	8.8	67	0.1	5	17	270	0.00	29.975 
10:05	8.8	-1.4	8.8	65	-0.5	6	16	270	0.00	29.975 
10:10	8.8	-2.5	8.8	65	-0.5	7	15	270	0.00	29.975 
10:15	9.0	0.1	9.0	66	-0.0	5	12	248	0.00	29.982 
10:20	9.2	0.3	9.2	66	0.2	5	14	270	0.00	29.982 
10:25	9.3	0.4	9.3	66	0.3	5	15	270	0.00	29.982 
10:30	9.3	0.4	9.3	66	0.3	5	10	270	0.00	29.982 
10:35	9.5	2.1	9.5	67	0.8	4	12	248	0.00	29.982 
10:40	9.5	-0.6	9.5	65	0.1	6	15	248	0.00	29.982 
10:45	9.7	2.3	9.7	65	0.3	4	11	248	0.00	29.984 
10:50	9.9	1.1	9.9	63	-0.1	5	14	270	0.00	29.984 
10:55	9.7	-0.3	9.7	62	-0.7	6	13	270	0.00	29.984 
11:00	9.7	0.9	9.7	62	-0.7	5	10	270	0.00	29.991 
11:05	9.9	1.1	9.9	61	-0.8	5	12	270	0.00	29.991 
11:10	10.0	0.0	10.0	61	-0.7	6	13	270	0.00	29.991 
11:15	10.0	1.2	10.0	61	-0.7	5	14	270	0.00	29.996 
11:20	10.2	1.5	10.2	60	-0.9	5	10	270	0.00	29.996 
11:25	10.4	0.5	10.4	60	-0.7	6	14	270	0.00	29.996 
11:30	10.7	2.1	10.7	61	-0.1	5	12	248	0.00	29.993 
11:35	11.1	2.5	11.1	60	-0.0	5	13	248	0.00	29.993 
11:40	10.9	2.3	10.9	58	-0.9	5	13	270	0.00	29.993 
11:45	10.7	2.1	10.7	60	-0.4	5	16	270	0.00	29.995 
11:50	10.7	0.9	10.7	59	-0.8	6	13	270	0.00	29.995 
11:55	10.5	0.6	10.5	58	-1.3	6	13	270	0.00	29.995 
12:00	10.7	-0.2	10.7	58	-1.1	7	16	270	0.00	29.989 
12:05	10.5	-0.4	10.5	58	-1.3	7	17	270	0.00	29.989 
12:10	10.5	-1.3	10.5	59	-1.0	8	22	270	0.00	29.989 
12:15	11.1	2.5	11.1	60	-0.0	5	14	270	0.00	29.997 
12:20	11.4	1.7	11.4	58	-0.5	6	15	248	0.00	29.997 
12:25	11.6	1.9	11.6	58	-0.3	6	17	270	0.00	29.997 
12:30	11.4	1.7	11.4	57	-0.8	6	12	270	0.00	29.998 
12:35	11.6	3.1	11.6	58	-0.3	5	12	270	0.00	29.998 
12:40	11.2	1.5	11.2	56	-1.4	6	19	270	0.00	29.998 
12:45	11.1	2.5	11.1	57	-1.1	5	17	270	0.00	29.999 
12:50	10.7	0.9	10.7	57	-1.5	6	18	270	0.00	29.999 
12:55	10.9	1.1	10.9	57	-1.3	6	13	270	0.00	29.999 
13:00	11.2	0.4	11.2	56	-1.4	7	15	270	0.00	29.997 
13:05	11.6	1.9	11.6	57	-0.6	6	16	270	0.00	29.997 
13:10	11.7	0.1	11.7	57	-0.6	8	22	270	0.00	29.997 
13:15	11.7	0.1	11.7	56	-0.9	8	20	270	0.00	30.000 
13:20	11.7	3.2	11.7	57	-0.6	5	13	270	0.00	30.000 
13:25	11.9	3.5	11.9	57	-0.4	5	11	270	0.00	30.000 
13:30	12.1	3.7	12.1	56	-0.6	5	9	270	0.00	30.012 
13:35	12.1	3.7	12.1	57	-0.2	5	13	270	0.00	30.012 
13:40	12.1	1.5	12.1	56	-0.6	7	15	270	0.00	30.012 
13:45	12.3	2.8	12.3	55	-0.7	6	17	270	0.00	30.013 
13:50	12.4	5.4	12.4	56	-0.3	4	13	270	0.00	30.013 
13:55	12.4	4.1	12.4	55	-0.7	5	12	270	0.00	30.013 
14:00	12.4	2.9	12.4	55	-0.7	6	14	270	0.00	30.023 
14:05	12.4	2.9	12.4	56	-0.3	6	14	270	0.00	30.023 
14:10	12.4	2.9	12.4	55	-0.7	6	14	270	0.00	30.023 
14:15	12.8	4.5	12.8	55	-0.3	5	14	270	0.00	30.020 
14:20	13.1	4.9	13.1	54	-0.4	5	13	270	0.00	30.020 
14:25	13.3	6.5	13.3	55	0.2	4	9	248	0.00	30.020 
14:30	13.6	6.8	13.6	55	0.5	4	11	270	0.00	30.028 
14:35	13.1	2.7	13.1	55	0.0	7	14	270	0.00	30.028 
14:40	13.1	3.7	13.1	55	0.0	6	13	270	0.00	30.028 
14:45	13.5	4.2	13.5	55	0.4	6	13	270	0.00	30.039 
14:50	13.3	5.1	13.3	55	0.2	5	9	270	0.00	30.039 
14:55	13.1	4.9	13.1	55	0.0	5	13	270	0.00	30.039 
15:00	13.3	5.1	13.3	56	0.6	5	13	270	0.00	30.045 
15:05	13.3	4.0	13.3	56	0.6	6	11	270	0.00	30.045 
15:10	13.3	5.1	13.3	57	0.9	5	11	270	0.00	30.045 
15:15	13.5	4.2	13.5	56	0.8	6	16	270	0.00	30.049 
15:20	13.5	6.7	13.5	57	1.1	4	12	248	0.00	30.049 
15:25	13.8	7.1	13.8	57	1.4	4	13	248	0.00	30.049 
15:30	13.8	13.8	13.8	56	1.0	3	9	270	0.00	30.057 
15:35	14.0	7.3	14.0	55	0.8	4	9	248	0.00	30.057 
15:40	14.1	7.4	14.1	56	1.3	4	10	270	0.00	30.057 
15:45	14.3	6.3	14.3	54	0.7	5	15	270	0.00	30.062 
15:50	14.1	3.0	14.1	54	0.5	8	18	270	0.00	30.062 
15:55	13.6	5.5	13.6	54	0.1	5	13	248	0.00	30.062 
16:00	13.5	5.3	13.5	55	0.4	5	14	270	0.00	30.076 
16:05	13.6	4.3	13.6	54	0.1	6	16	248	0.00	30.076 
16:10	13.5	4.2	13.5	54	-0.0	6	15	270	0.00	30.076 
16:15	13.3	5.1	13.3	54	-0.2	5	11	270	0.00	30.086 
16:20	13.3	4.0	13.3	54	-0.2	6	16	270	0.00	30.086 
16:25	13.3	5.1	13.3	54	-0.2	5	13	270	0.00	30.086 
16:30	13.3	5.1	13.3	54	-0.2	5	13	270	0.00	30.091 
16:35	13.3	6.5	13.3	55	0.2	4	9	270	0.00	30.091 
16:40	13.3	6.5	13.3	55	0.2	4	9	270	0.00	30.091 
16:45	13.3	5.1	13.3	53	-0.6	5	13	270	0.00	30.095 
16:50	13.1	3.7	13.1	53	-0.8	6	13	270	0.00	30.095 
16:55	13.1	4.9	13.1	53	-0.8	5	12	248	0.00	30.095 
17:00	13.1	4.9	13.1	53	-0.8	5	13	270	0.00	30.102 
17:05	12.9	6.0	12.9	53	-1.0	4	15	248	0.00	30.102 
17:10	12.9	2.5	12.9	51	-1.8	7	15	270	0.00	30.102 
17:15	12.9	3.5	12.9	50	-2.2	6	16	270	0.00	30.110 
17:20	12.9	3.5	12.9	51	-1.8	6	17	270	0.00	30.110 
17:25	12.8	4.5	12.8	51	-1.9	5	13	248	0.00	30.110 
17:30	12.8	5.9	12.8	52	-1.5	4	13	270	0.00	30.114 
17:35	12.8	3.4	12.8	51	-1.9	6	19	270	0.00	30.114 
17:40	12.8	4.5	12.8	50	-2.3	5	14	248	0.00	30.114 
17:45	12.6	5.7	12.6	50	-2.5	4	11	270	0.00	30.123 
17:50	12.4	12.4	12.4	51	-2.2	3	11	248	0.00	30.123 
17:55	12.4	5.4	12.4	52	-1.8	4	10	248	0.00	30.123 
18:00	12.4	5.4	12.4	52	-1.8	4	11	248	0.00	30.128 
18:05	12.4	4.1	12.4	52	-1.8	5	12	248	0.00	30.128 
18:10	12.4	12.4	12.4	52	-1.8	3	7	248	0.00	30.128 
18:15	12.4	5.4	12.4	53	-1.4	4	11	248	0.00	30.135 
18:20	12.4	4.1	12.4	53	-1.4	5	12	248	0.00	30.135 
18:25	12.4	5.4	12.4	54	-1.0	4	10	248	0.00	30.135 
18:30	12.4	5.4	12.4	54	-1.0	4	12	248	0.00	30.143 
18:35	12.3	12.3	12.3	55	-0.7	3	8	248	0.00	30.143 
18:40	12.4	5.4	12.4	56	-0.3	4	12	248	0.00	30.143 
18:45	12.3	5.3	12.3	56	-0.4	4	13	248	0.00	30.153 
18:50	12.4	5.4	12.4	57	0.1	4	12	248	0.00	30.153 
18:55	12.4	5.4	12.4	58	0.5	4	10	248	0.00	30.153 
19:00	12.4	4.1	12.4	58	0.5	5	14	248	0.00	30.159 
19:05	12.4	5.4	12.4	58	0.5	4	13	248	0.00	30.159 
19:10	12.4	4.1	12.4	58	0.5	5	11	248	0.00	30.159 
19:15	12.6	3.1	12.6	58	0.7	6	14	248	0.00	30.162 
19:20	12.6	5.7	12.6	58	0.7	4	12	248	0.00	30.162 
19:25	12.4	12.4	12.4	59	0.8	3	7	248	0.00	30.162 
19:30	12.4	5.4	12.4	59	0.8	4	9	248	0.00	30.164 
19:35	12.4	12.4	12.4	59	0.8	3	6	248	0.00	30.164 
19:40	12.4	5.4	12.4	59	0.8	4	9	248	0.00	30.164 
19:45	12.6	5.7	12.6	59	1.0	4	10	248	0.00	30.166 
19:50	12.6	4.3	12.6	59	1.0	5	12	248	0.00	30.166 
19:55	12.6	5.7	12.6	59	1.0	4	10	248	0.00	30.166 
20:00	12.6	5.7	12.6	59	1.0	4	10	248	0.00	30.165 
20:05	12.6	12.6	12.6	59	1.0	3	7	248	0.00	30.165 
20:10	12.6	5.7	12.6	59	1.0	4	10	248	0.00	30.165 
20:15	12.6	12.6	12.6	59	1.0	3	11	248	0.00	30.163 
20:20	12.4	12.4	12.4	60	1.2	3	9	248	0.00	30.163 
20:25	12.6	12.6	12.6	60	1.4	3	9	248	0.00	30.163 
20:30	12.6	5.7	12.6	59	1.0	4	11	248	0.00	30.164 
20:35	12.8	5.9	12.8	59	1.2	4	11	248	0.00	30.164 
20:40	12.6	12.6	12.6	59	1.0	3	14	248	0.00	30.164 
20:45	12.6	12.6	12.6	59	1.0	3	11	270	0.00	30.167 
20:50	12.6	12.6	12.6	58	0.7	3	12	248	0.00	30.167 
20:55	12.8	12.8	12.8	59	1.2	3	9	248	0.00	30.167 
21:00	12.8	5.9	12.8	58	0.8	4	13	248	0.00	30.170 
21:05	12.9	12.9	12.9	58	0.9	3	10	248	0.00	30.170 
21:10	12.9	12.9	12.9	58	0.9	3	7	248	0.00	30.170 
21:15	12.9	12.9	12.9	58	0.9	3	7	248	0.00	30.167 
21:20	12.9	12.9	12.9	58	0.9	3	11	248	0.00	30.167 
21:25	12.9	12.9	12.9	58	0.9	3	9	248	0.00	30.167 
21:30	12.9	12.9	12.9	58	0.9	2	5	248	0.00	30.163 
21:35	12.9	12.9	12.9	59	1.3	3	6	248	0.00	30.163 
21:40	12.9	12.9	12.9	59	1.3	2	5	248	0.00	30.163 
21:45	12.9	12.9	12.9	59	1.3	3	10	248	0.00	30.165 
21:50	12.9	12.9	12.9	60	1.7	2	9	248	0.00	30.165 
21:55	13.1	13.1	13.1	60	1.9	3	9	248	0.00	30.165 
22:00	13.1	13.1	13.1	60	1.9	2	7	248	0.00	30.162 
22:05	13.1	13.1	13.1	60	1.9	3	11	248	0.00	30.162 
22:10	13.1	13.1	13.1	61	2.2	2	4	248	0.00	30.162 
22:15	13.1	13.1	13.1	61	2.2	2	10	248	0.00	30.160 
22:20	12.9	12.9	12.9	61	2.0	1	4	248	0.00	30.160 
22:25	12.9	12.9	12.9	62	2.4	1	6	248	0.00	30.160 
22:30	13.1	13.1	13.1	62	2.6	2	5	248	0.00	30.162 
22:35	13.1	13.1	13.1	62	2.6	2	9	248	0.00	30.162 
22:40	13.1	13.1	13.1	62	2.6	2	5	248	0.00	30.162 
22:45	13.3	13.3	13.3	63	3.1	2	10	248	0.00	30.163 
22:50	13.3	13.3	13.3	63	3.1	2	5	248	0.00	30.163 
22:55	13.3	13.3	13.3	63	3.1	2	7	248	0.00	30.163 
23:00	13.3	13.3	13.3	63	3.1	3	7	248	0.00	30.160 
23:05	13.5	13.5	13.5	63	3.3	3	9	248	0.00	30.160 
23:10	13.6	13.6	13.6	63	3.4	3	7	248	0.00	30.160 
23:15	13.8	13.8	13.8	63	3.6	3	8	248	0.00	30.161 
23:20	13.8	13.8	13.8	63	3.6	3	8	248	0.00	30.161 
23:25	14.0	14.0	14.0	63	3.8	3	9	248	0.00	30.161 
23:30	14.1	14.1	14.1	63	3.9	3	8	248	0.00	30.161 
23:35	14.3	14.3	14.3	63	4.0	3	7	248	0.00	30.161 
23:40	14.4	14.4	14.4	63	4.1	3	7	248	0.00	30.161 
23:45	14.4	14.4	14.4	63	4.1	2	9	248	0.00	30.163 
23:50	14.6	14.6	14.6	63	4.3	3	6	225	0.00	30.163 
23:55	14.9	8.3	14.9	62	4.3	4	10	248	0.00	30.163 

CoCoRaHS
IN-AL-39
A2 Web Hosting
Creative Commons License
GoDaddy
search engine by freefind advanced

loaded 2018-11-18 11:06:30 • last modified 2010-11-18 10:43:29
Privacy PolicyDisclaimer
• wx.awcolley.com is powered by PmWiki v.2002016 •
• all content (unless otherwise noted) © 2018 A W Colley